Time;durP1;ratioP1;P1;durP2;ratioP2;P2;SDS_P1;SDS_P2;PMS_P1;PMS_P2;Temp;Humidity;BMP_temperature;BMP_pressure;BME280_temperature;BME280_humidity;BME280_pressure;Samples;Min_cycle;Max_cycle;Signal;HPM_P1;HPM_P2
2023/07/01 04:30:48;;;;;;;6.53;2.35;;;18.90;86.80;;;;;;5684171;23;20086;-81
2023/07/01 04:33:14;;;;;;;6.47;1.88;;;18.90;86.60;;;;;;4904968;29;20029;-84
2023/07/01 04:35:40;;;;;;;4.00;2.30;;;18.90;86.70;;;;;;4897688;29;20042;-83
2023/07/01 04:38:05;;;;;;;9.43;2.30;;;18.90;86.60;;;;;;4897612;29;20576;-83
2023/07/01 04:40:31;;;;;;;5.65;2.05;;;18.90;86.60;;;;;;4897880;29;20110;-83
2023/07/01 04:42:56;;;;;;;4.20;2.00;;;18.80;86.70;;;;;;4910592;29;20032;-83
2023/07/01 04:45:22;;;;;;;5.28;2.10;;;18.80;86.90;;;;;;4916402;29;20074;-83
2023/07/01 04:47:48;;;;;;;4.55;1.90;;;18.80;86.80;;;;;;4900960;29;20036;-83
2023/07/01 04:50:14;;;;;;;4.90;2.15;;;18.80;87.00;;;;;;4896045;29;20470;-83
2023/07/01 04:52:40;;;;;;;6.47;2.10;;;18.80;86.90;;;;;;4897093;29;20064;-83
2023/07/01 04:55:06;;;;;;;8.27;2.30;;;18.90;86.90;;;;;;4897221;29;20037;-83
2023/07/01 04:57:32;;;;;;;6.60;2.35;;;18.90;86.80;;;;;;4897408;29;20138;-83
2023/07/01 04:59:57;;;;;;;4.65;1.75;;;18.90;86.60;;;;;;4897168;29;20072;-83
2023/07/01 05:02:23;;;;;;;5.90;1.83;;;18.90;86.80;;;;;;4903185;29;20025;-83
2023/07/01 05:04:49;;;;;;;5.28;1.50;;;18.90;86.70;;;;;;4911370;29;20032;-82
2023/07/01 05:07:15;;;;;;;2.83;1.30;;;18.80;86.00;;;;;;4908593;29;20020;-82
2023/07/01 05:09:40;;;;;;;3.03;1.17;;;18.80;86.00;;;;;;4883374;29;20039;-80
2023/07/01 05:12:06;;;;;;;5.05;1.25;;;18.80;86.20;;;;;;4902230;29;20036;-80
2023/07/01 05:14:32;;;;;;;4.68;1.13;;;18.80;86.10;;;;;;4899029;29;20393;-80
2023/07/01 05:16:57;;;;;;;3.78;1.20;;;18.70;85.80;;;;;;4900671;29;20455;-82
2023/07/01 05:19:23;;;;;;;3.70;1.15;;;18.80;85.70;;;;;;4903147;29;20029;-82
2023/07/01 05:21:50;;;;;;;3.15;1.17;;;18.80;85.40;;;;;;4919551;29;20028;-80
2023/07/01 05:24:16;;;;;;;4.35;1.30;;;18.90;85.10;;;;;;4910335;29;20068;-80
2023/07/01 05:26:50;;;;;;;2.97;1.15;;;19.00;85.00;;;;;;4900540;29;20080;-79
2023/07/01 05:29:17;;;;;;;2.38;1.20;;;19.10;84.30;;;;;;4900624;29;20068;-82
2023/07/01 05:31:42;;;;;;;5.28;1.10;;;19.10;84.10;;;;;;4903362;29;20082;-82
2023/07/01 05:34:08;;;;;;;3.90;1.13;;;19.10;83.70;;;;;;4915386;29;20403;-82
2023/07/01 05:36:34;;;;;;;5.45;1.33;;;19.00;83.50;;;;;;4913277;29;20028;-82
2023/07/01 05:39:00;;;;;;;3.65;1.00;;;19.00;83.70;;;;;;4900434;29;20046;-82
2023/07/01 05:41:26;;;;;;;3.58;1.33;;;19.00;83.50;;;;;;4900268;29;20103;-82
2023/07/01 05:43:54;;;;;;;2.60;1.20;;;19.00;83.10;;;;;;4900117;29;20063;-82
2023/07/01 05:46:19;;;;;;;3.90;1.20;;;19.00;83.10;;;;;;4919033;29;20368;-83
2023/07/01 05:48:45;;;;;;;2.47;1.00;;;19.00;83.00;;;;;;4919165;29;20044;-82
2023/07/01 05:51:11;;;;;;;5.35;1.25;;;19.10;82.60;;;;;;4897942;29;20040;-83
2023/07/01 05:53:36;;;;;;;4.80;1.38;;;19.20;82.50;;;;;;4900181;29;20029;-82
2023/07/01 05:56:03;;;;;;;2.33;1.00;;;19.30;82.00;;;;;;4900549;29;20100;-80
2023/07/01 05:58:28;;;;;;;5.45;1.17;;;19.40;82.00;;;;;;4900423;29;20048;-83
2023/07/01 06:00:54;;;;;;;2.70;1.08;;;19.40;81.90;;;;;;4898985;29;20041;-83
2023/07/01 06:03:19;;;;;;;3.85;1.30;;;19.40;82.10;;;;;;4905667;29;20071;-83
2023/07/01 06:05:45;;;;;;;2.78;1.27;;;19.40;81.60;;;;;;4923127;29;20100;-80
2023/07/01 06:08:11;;;;;;;4.07;1.23;;;19.50;81.40;;;;;;4910472;29;20036;-80
2023/07/01 06:10:37;;;;;;;5.93;1.85;;;19.50;81.20;;;;;;4909486;29;20024;-80
2023/07/01 06:13:02;;;;;;;3.85;1.30;;;19.50;81.30;;;;;;4922763;29;20480;-80
2023/07/01 06:15:28;;;;;;;8.10;2.10;;;19.50;81.40;;;;;;4922869;29;20547;-80
2023/07/01 06:17:54;;;;;;;4.80;1.40;;;19.50;81.40;;;;;;4904591;29;20625;-82
2023/07/01 06:20:19;;;;;;;3.22;1.30;;;19.50;81.00;;;;;;4921349;29;20056;-83
2023/07/01 06:22:45;;;;;;;4.50;1.70;;;19.50;81.10;;;;;;4900182;29;20131;-83
2023/07/01 06:25:12;;;;;;;6.72;1.70;;;19.50;81.20;;;;;;4893300;29;20399;-82
2023/07/01 06:27:37;;;;;;;5.75;1.98;;;19.40;81.00;;;;;;4905290;29;20067;-79
2023/07/01 06:30:03;;;;;;;4.43;1.67;;;19.40;81.00;;;;;;4901740;29;20040;-85
2023/07/01 06:32:29;;;;;;;4.38;1.75;;;19.30;81.20;;;;;;4912138;29;20056;-85
2023/07/01 06:34:56;;;;;;;4.03;1.65;;;19.30;81.20;;;;;;4904471;29;20050;-81
2023/07/01 06:37:21;;;;;;;4.28;1.85;;;19.30;81.20;;;;;;4903439;29;20032;-81
2023/07/01 06:39:47;;;;;;;4.00;1.75;;;19.30;81.10;;;;;;4902096;29;20029;-85
2023/07/01 06:42:12;;;;;;;7.13;2.65;;;19.20;81.00;;;;;;4902003;29;20039;-82
2023/07/01 06:44:38;;;;;;;7.38;2.80;;;19.20;80.80;;;;;;4886508;29;20036;-81
2023/07/01 06:47:05;;;;;;;6.30;2.90;;;19.20;81.10;;;;;;4902476;29;20061;-81
2023/07/01 06:49:31;;;;;;;8.43;3.20;;;19.30;80.50;;;;;;4903253;29;20032;-82
2023/07/01 06:51:57;;;;;;;7.75;3.25;;;19.30;80.40;;;;;;4903016;29;20459;-80
2023/07/01 06:54:22;;;;;;;7.22;3.42;;;19.30;80.30;;;;;;4886072;29;20021;-81
2023/07/01 06:56:48;;;;;;;8.95;3.33;;;19.30;80.20;;;;;;4903171;29;20504;-81
2023/07/01 06:59:14;;;;;;;6.63;2.97;;;19.30;80.10;;;;;;4906109;29;20032;-88
2023/07/01 07:01:39;;;;;;;6.72;3.13;;;19.30;79.90;;;;;;4906118;29;20039;-86
2023/07/01 07:04:06;;;;;;;8.05;3.55;;;19.30;79.60;;;;;;4904079;29;20033;-91
2023/07/01 07:06:32;;;;;;;10.05;3.60;;;19.50;80.10;;;;;;4921129;29;20039;-83
2023/07/01 07:08:57;;;;;;;7.55;3.17;;;19.50;80.10;;;;;;4918667;29;20402;-80
2023/07/01 07:11:24;;;;;;;6.20;3.80;;;19.50;79.90;;;;;;4914007;29;20080;-91
2023/07/01 07:13:49;;;;;;;10.52;3.75;;;19.50;80.00;;;;;;4904094;29;20067;-84
2023/07/01 07:16:15;;;;;;;12.77;4.75;;;19.50;80.10;;;;;;4921562;29;20036;-91
2023/07/01 07:18:41;;;;;;;12.32;5.03;;;19.50;80.00;;;;;;4917922;29;20108;-90
2023/07/01 07:21:07;;;;;;;9.63;4.43;;;19.50;79.60;;;;;;4902399;29;20032;-88
2023/07/01 07:23:32;;;;;;;12.90;5.63;;;19.50;79.60;;;;;;4914693;29;20028;-84
2023/07/01 07:25:58;;;;;;;13.05;5.53;;;19.50;79.40;;;;;;4920818;29;20480;-88
2023/07/01 12:12:37;;;;;;;26.58;14.80;;;26.30;46.90;;;;;;5464901;23;20593;-76
2023/07/01 12:15:03;;;;;;;29.25;14.57;;;26.30;47.90;;;;;;4875593;29;20037;-76
2023/07/01 12:17:30;;;;;;;27.33;15.27;;;26.30;47.30;;;;;;4881592;29;20035;-77
2023/07/01 12:19:58;;;;;;;28.35;15.25;;;26.30;47.40;;;;;;4880556;29;20041;-77
2023/07/01 12:24:58;;;;;;;31.92;16.58;;;26.50;47.50;;;;;;4869577;29;19927;-77
2023/07/01 12:27:24;;;;;;;31.98;16.58;;;26.30;46.80;;;;;;4891969;29;20082;-77
2023/07/01 12:29:50;;;;;;;28.58;15.32;;;26.30;47.60;;;;;;4861702;29;20392;-77
2023/07/01 12:32:16;;;;;;;34.38;16.05;;;26.40;46.60;;;;;;4888508;29;20088;-76
2023/07/01 12:34:42;;;;;;;33.42;16.90;;;26.40;47.00;;;;;;4889702;29;20865;-82
2023/07/01 12:37:08;;;;;;;30.95;16.33;;;26.30;47.00;;;;;;4888702;29;20020;-77
2023/07/01 12:39:35;;;;;;;32.28;16.50;;;26.10;47.20;;;;;;4877507;29;20033;-77
2023/07/01 12:42:01;;;;;;;35.53;17.52;;;25.90;48.50;;;;;;4878845;29;20061;-80
2023/07/01 12:44:27;;;;;;;34.75;16.70;;;25.70;48.00;;;;;;4897926;29;20044;-81
2023/07/01 12:46:53;;;;;;;31.30;16.67;;;25.50;48.90;;;;;;4897797;29;20024;-81
2023/07/01 12:49:19;;;;;;;29.88;16.23;;;25.30;49.30;;;;;;4892089;29;20115;-77
2023/07/01 12:51:45;;;;;;;36.13;18.05;;;25.30;49.30;;;;;;4882195;29;20154;-78
2023/07/01 12:54:12;;;;;;;31.55;16.20;;;25.30;49.20;;;;;;4881555;29;20073;-78
2023/07/01 12:56:39;;;;;;;32.03;17.23;;;25.20;49.30;;;;;;4887526;29;20039;-78
2023/07/01 12:59:04;;;;;;;35.17;17.75;;;25.00;49.00;;;;;;4880101;29;20032;-78
2023/07/01 13:01:31;;;;;;;38.47;18.13;;;24.80;49.90;;;;;;4893378;29;20601;-78
2023/07/01 13:03:56;;;;;;;35.28;17.30;;;24.70;50.70;;;;;;4873952;29;20085;-78
2023/07/01 13:06:22;;;;;;;32.40;16.13;;;24.70;50.80;;;;;;4887293;29;20735;-80
2023/07/01 13:08:48;;;;;;;32.22;16.35;;;24.60;51.40;;;;;;4884736;29;20045;-80
2023/07/01 13:11:14;;;;;;;34.95;17.05;;;24.70;51.90;;;;;;4884989;29;20579;-80
2023/07/01 13:13:40;;;;;;;31.88;16.85;;;24.80;50.80;;;;;;4873787;29;20119;-84
2023/07/01 13:16:13;;;;;;;37.45;18.45;;;24.90;51.60;;;;;;4876386;29;20056;-80
2023/07/01 13:18:41;;;;;;;35.95;18.40;;;24.90;51.00;;;;;;4878930;29;20120;-81
2023/07/01 13:21:08;;;;;;;35.78;16.98;;;25.00;51.70;;;;;;4875809;29;20033;-82
2023/07/01 13:23:34;;;;;;;36.97;18.40;;;24.90;51.50;;;;;;4862921;29;20136;-82
2023/07/01 13:26:00;;;;;;;35.70;18.92;;;24.80;51.40;;;;;;4882135;29;21827;-81
2023/07/01 13:28:25;;;;;;;37.63;18.77;;;24.70;51.90;;;;;;4880911;29;20029;-82
2023/07/01 13:30:51;;;;;;;38.92;20.23;;;24.70;52.90;;;;;;4881024;29;20052;-81
2023/07/01 13:33:23;;;;;;;34.47;18.77;;;25.00;52.10;;;;;;4887421;29;20032;-82
2023/07/01 13:35:49;;;;;;;35.30;20.40;;;25.30;52.20;;;;;;4889049;29;20145;-80
2023/07/01 13:38:15;;;;;;;35.00;19.85;;;25.50;51.30;;;;;;4885940;29;20040;-81
2023/07/01 13:40:43;;;;;;;36.42;19.77;;;25.60;49.90;;;;;;4893542;29;20032;-80
2023/07/01 13:43:27;;;;;;;42.42;20.60;;;25.50;49.70;;;;;;4894114;29;20044;-80
2023/07/01 13:45:52;;;;;;;35.60;19.27;;;25.20;50.10;;;;;;4889858;29;20572;-78
2023/07/01 13:48:32;;;;;;;36.80;19.33;;;25.00;50.90;;;;;;4887785;29;20017;-79
2023/07/01 13:50:58;;;;;;;37.67;20.70;;;24.70;51.50;;;;;;4882104;29;20024;-78
2023/07/01 13:53:24;;;;;;;37.67;19.75;;;24.50;51.70;;;;;;4880419;29;20498;-78
2023/07/01 13:55:50;;;;;;;40.33;21.52;;;24.40;52.20;;;;;;4898228;29;20035;-78
2023/07/01 13:58:15;;;;;;;36.45;19.60;;;24.30;52.80;;;;;;4893777;29;20029;-79
2023/07/01 14:00:44;;;;;;;36.80;20.20;;;24.30;52.60;;;;;;4895364;29;20035;-80
2023/07/01 14:03:22;;;;;;;37.35;19.67;;;24.30;52.50;;;;;;4888789;29;20028;-79
2023/07/01 14:05:49;;;;;;;34.67;19.80;;;24.20;52.60;;;;;;4898186;29;20033;-78
2023/07/01 14:08:16;;;;;;;37.65;19.05;;;24.10;53.20;;;;;;4889908;29;20021;-79
2023/07/01 14:10:42;;;;;;;38.63;19.25;;;23.90;53.30;;;;;;4881920;29;20419;-79
2023/07/01 14:13:11;;;;;;;37.30;19.70;;;24.00;53.80;;;;;;4896802;29;20088;-80
2023/07/01 14:15:43;;;;;;;36.75;19.42;;;24.00;53.70;;;;;;4890111;29;20033;-79
2023/07/01 14:18:13;;;;;;;38.28;19.88;;;24.00;53.80;;;;;;4894526;29;20036;-79
2023/07/01 14:20:53;;;;;;;40.47;20.02;;;24.10;53.80;;;;;;4899203;29;20039;-79
2023/07/01 14:23:22;;;;;;;46.00;20.88;;;24.30;53.50;;;;;;4902233;29;20059;-78
2023/07/01 14:25:50;;;;;;;35.35;19.15;;;24.40;52.60;;;;;;4894573;29;20110;-75
2023/07/01 14:28:17;;;;;;;37.65;19.98;;;24.40;52.60;;;;;;4898619;29;20024;-75
2023/07/01 14:31:08;;;;;;;35.78;18.38;;;24.30;53.30;;;;;;4890908;29;20028;-77
2023/07/01 14:33:42;;;;;;;38.40;17.88;;;24.20;53.50;;;;;;4887384;29;20053;-77
2023/07/01 14:36:13;;;;;;;35.50;17.33;;;24.10;54.10;;;;;;4876039;29;20029;-80
2023/07/01 14:38:44;;;;;;;30.77;17.40;;;24.20;53.50;;;;;;4896569;29;20116;-80
2023/07/01 14:41:25;;;;;;;33.20;17.35;;;24.50;53.80;;;;;;4898783;29;20025;-78
2023/07/01 14:43:58;;;;;;;34.45;17.95;;;24.80;53.50;;;;;;4897156;29;20033;-76
2023/07/01 14:46:35;;;;;;;31.05;17.38;;;25.00;53.40;;;;;;4879972;29;20068;-77
2023/07/01 14:49:01;;;;;;;33.85;17.00;;;25.10;53.40;;;;;;4899562;29;20131;-82
2023/07/01 14:51:27;;;;;;;34.47;19.02;;;24.90;52.20;;;;;;4884751;29;20032;-77
2023/07/01 14:53:55;;;;;;;31.23;18.10;;;24.80;53.40;;;;;;4898710;29;20056;-76
2023/07/01 14:56:22;;;;;;;35.80;18.00;;;24.60;53.20;;;;;;4899421;29;20032;-77
2023/07/01 14:58:48;;;;;;;33.60;18.10;;;24.40;54.10;;;;;;4889619;29;20033;-77
2023/07/01 15:01:17;;;;;;;33.17;18.42;;;24.40;54.70;;;;;;4883668;29;20085;-77
2023/07/01 15:03:43;;;;;;;35.42;17.55;;;24.30;54.80;;;;;;4884640;29;20084;-77
2023/07/01 15:06:10;;;;;;;35.10;18.48;;;24.30;54.80;;;;;;4902007;29;20032;-76
2023/07/01 15:08:36;;;;;;;34.47;18.77;;;24.30;54.90;;;;;;4902284;29;20036;-77
2023/07/01 15:11:02;;;;;;;34.90;18.15;;;24.20;54.90;;;;;;4889922;29;20036;-77
2023/07/01 15:13:31;;;;;;;31.67;18.88;;;24.10;55.90;;;;;;4883890;29;20165;-77
2023/07/01 15:15:57;;;;;;;34.15;19.15;;;23.90;55.60;;;;;;4882792;29;20060;-77
2023/07/01 15:18:24;;;;;;;36.22;19.15;;;23.90;55.50;;;;;;4883800;29;20033;-76
2023/07/01 15:20:50;;;;;;;36.58;18.65;;;23.80;56.00;;;;;;4883112;29;20025;-77
2023/07/01 15:23:15;;;;;;;37.90;19.38;;;23.80;55.60;;;;;;4866810;29;20052;-77
2023/07/01 15:25:41;;;;;;;37.55;19.63;;;23.90;55.20;;;;;;4877932;29;20039;-77
2023/07/01 15:28:07;;;;;;;36.45;19.77;;;24.00;55.50;;;;;;4883560;29;20097;-77
2023/07/01 15:30:33;;;;;;;37.05;19.45;;;24.00;53.90;;;;;;4868225;29;20041;-77
2023/07/01 15:32:59;;;;;;;32.63;20.13;;;24.00;55.40;;;;;;4882904;29;20056;-77
2023/07/01 15:35:24;;;;;;;41.05;20.23;;;23.90;55.60;;;;;;4901813;29;20028;-77
2023/07/01 15:37:50;;;;;;;34.55;18.95;;;23.90;55.30;;;;;;4869089;29;20036;-77
2023/07/01 15:40:16;;;;;;;36.90;19.55;;;24.00;55.40;;;;;;4869971;29;20037;-77
2023/07/01 15:42:44;;;;;;;34.60;19.02;;;24.00;55.00;;;;;;4898184;29;20041;-77
2023/07/01 15:45:10;;;;;;;40.20;19.15;;;23.90;54.60;;;;;;4901639;29;20385;-77
2023/07/01 15:47:36;;;;;;;40.70;20.50;;;24.00;55.20;;;;;;4901575;29;20065;-77
2023/07/01 15:50:02;;;;;;;36.88;19.50;;;24.00;55.00;;;;;;4886363;29;20115;-77
2023/07/01 15:52:27;;;;;;;37.70;19.50;;;24.00;55.80;;;;;;4865920;29;20068;-77
2023/07/01 15:54:53;;;;;;;35.75;19.83;;;23.90;55.50;;;;;;4891841;29;20036;-77
2023/07/01 15:57:19;;;;;;;39.78;19.73;;;23.90;55.40;;;;;;4883036;29;20029;-77
2023/07/01 15:59:47;;;;;;;35.60;19.45;;;23.80;56.30;;;;;;4890517;29;20029;-77
2023/07/01 16:02:13;;;;;;;36.60;19.73;;;23.70;56.20;;;;;;4899497;29;20057;-77
2023/07/01 16:04:39;;;;;;;37.70;19.25;;;23.50;57.30;;;;;;4893227;29;20440;-77
2023/07/01 16:07:27;;;;;;;33.63;18.63;;;23.40;57.30;;;;;;4884406;29;20519;-76
2023/07/01 16:10:04;;;;;;;34.53;18.25;;;23.30;57.60;;;;;;4890091;29;20037;-77
2023/07/01 16:12:34;;;;;;;36.75;18.70;;;23.20;57.50;;;;;;4882667;29;20041;-77
2023/07/01 16:15:12;;;;;;;38.33;19.90;;;23.20;58.00;;;;;;4876380;29;20048;-77
2023/07/01 16:17:42;;;;;;;37.72;18.67;;;23.10;58.70;;;;;;4900781;29;20036;-77
2023/07/01 16:20:30;;;;;;;34.63;19.08;;;23.00;58.10;;;;;;4886189;29;20088;-77
2023/07/01 16:23:03;;;;;;;35.78;18.55;;;22.90;58.60;;;;;;4870807;29;20043;-76
2023/07/01 16:25:28;;;;;;;40.33;20.10;;;22.90;58.50;;;;;;4881791;29;20403;-76
2023/07/01 16:27:55;;;;;;;38.88;18.90;;;22.80;58.40;;;;;;4882028;29;20048;-76
2023/07/01 16:30:21;;;;;;;35.47;18.73;;;22.80;58.90;;;;;;4882438;29;20100;-77
2023/07/01 16:32:49;;;;;;;40.10;19.15;;;22.80;59.20;;;;;;4877327;29;20516;-77
2023/07/01 16:35:50;;;;;;;37.00;18.33;;;22.80;59.00;;;;;;4897977;29;20028;-76
2023/07/01 16:38:29;;;;;;;34.83;18.75;;;22.70;58.80;;;;;;4844564;29;20077;-77
2023/07/01 16:40:56;;;;;;;34.35;19.25;;;22.70;59.10;;;;;;4883301;29;20028;-76
2023/07/01 16:43:27;;;;;;;35.45;18.35;;;22.80;59.00;;;;;;4885327;29;20150;-76
2023/07/01 16:45:54;;;;;;;37.67;20.80;;;22.70;59.50;;;;;;4881570;29;20104;-77
2023/07/01 16:48:22;;;;;;;43.00;20.75;;;22.70;59.40;;;;;;4881025;29;20033;-77
2023/07/01 16:50:51;;;;;;;43.85;20.58;;;22.70;59.30;;;;;;4894020;29;20031;-77
2023/07/01 16:53:17;;;;;;;43.80;20.75;;;22.70;59.40;;;;;;4880939;29;20033;-76
2023/07/01 16:55:42;;;;;;;39.78;21.02;;;22.70;59.30;;;;;;4888333;29;20040;-77
2023/07/01 16:58:27;;;;;;;37.33;19.75;;;22.70;59.70;;;;;;4882093;29;20488;-76
2023/07/01 17:00:55;;;;;;;40.75;21.48;;;22.70;59.80;;;;;;4885407;29;20089;-77
2023/07/01 17:03:21;;;;;;;37.55;21.08;;;22.80;59.80;;;;;;4873655;29;20056;-77
2023/07/01 17:05:47;;;;;;;38.35;19.95;;;22.90;59.60;;;;;;4879007;29;20028;-77
2023/07/01 17:08:26;;;;;;;41.15;20.20;;;23.20;59.20;;;;;;4885466;29;20056;-77
2023/07/01 17:10:53;;;;;;;37.13;19.60;;;23.30;58.50;;;;;;4869017;29;20040;-77
2023/07/01 17:13:39;;;;;;;41.25;19.52;;;23.30;58.70;;;;;;4878668;29;20440;-77
2023/07/01 17:16:06;;;;;;;37.15;19.85;;;23.40;58.80;;;;;;4882256;29;20456;-77
2023/07/01 17:18:34;;;;;;;39.85;19.77;;;23.30;59.10;;;;;;4881688;29;20116;-77
2023/07/01 17:21:00;;;;;;;35.17;18.63;;;23.30;59.40;;;;;;4864038;29;20097;-76
2023/07/01 17:23:26;;;;;;;37.75;18.83;;;23.30;59.40;;;;;;4879434;29;20538;-76
2023/07/01 17:25:53;;;;;;;40.45;18.85;;;23.20;59.40;;;;;;4884843;29;20475;-77
2023/07/01 17:28:19;;;;;;;39.08;18.27;;;23.30;59.10;;;;;;4881288;29;20021;-77
2023/07/01 17:30:44;;;;;;;33.78;16.80;;;23.30;59.30;;;;;;4873438;29;20040;-77
2023/07/01 17:33:13;;;;;;;33.40;16.90;;;23.20;59.10;;;;;;4882333;29;20044;-77
2023/07/01 17:35:39;;;;;;;34.95;17.30;;;23.20;59.30;;;;;;4900009;29;20032;-76
2023/07/01 17:38:05;;;;;;;30.95;15.52;;;23.20;59.70;;;;;;4879465;29;20036;-77
2023/07/01 17:40:30;;;;;;;31.85;16.15;;;23.20;59.50;;;;;;4879466;29;20085;-77
2023/07/01 17:42:56;;;;;;;35.50;17.08;;;23.20;58.70;;;;;;4897004;29;20456;-76
2023/07/01 17:45:22;;;;;;;32.97;17.42;;;23.30;58.80;;;;;;4882993;29;20035;-76
2023/07/01 17:47:49;;;;;;;34.05;17.48;;;23.20;58.00;;;;;;4891522;29;20069;-76
2023/07/01 17:50:15;;;;;;;32.97;16.23;;;23.10;58.10;;;;;;4881409;29;20033;-77
2023/07/01 17:52:41;;;;;;;31.58;16.15;;;23.10;58.40;;;;;;4880441;29;20484;-76
2023/07/01 17:55:07;;;;;;;30.33;16.30;;;23.00;58.60;;;;;;4891042;29;20025;-76
2023/07/01 17:57:33;;;;;;;31.52;17.00;;;22.90;58.80;;;;;;4887061;29;20033;-77
2023/07/01 17:59:59;;;;;;;34.17;16.77;;;22.80;59.30;;;;;;4886936;29;20072;-76
2023/07/01 18:02:25;;;;;;;34.60;17.92;;;22.80;59.40;;;;;;4887503;29;20033;-77
2023/07/01 18:04:52;;;;;;;30.60;16.67;;;22.80;59.80;;;;;;4896754;29;20033;-77
2023/07/01 18:07:17;;;;;;;33.28;16.42;;;22.80;60.00;;;;;;4873785;29;20563;-76
2023/07/01 18:09:43;;;;;;;36.90;16.90;;;22.80;59.70;;;;;;4897953;29;20033;-77
2023/07/01 18:12:12;;;;;;;32.17;16.10;;;23.00;59.40;;;;;;4889108;29;20037;-76
2023/07/01 18:14:41;;;;;;;33.88;16.23;;;23.10;59.20;;;;;;4888082;29;20051;-77
2023/07/01 18:17:07;;;;;;;31.52;16.98;;;23.10;58.60;;;;;;4901182;29;20100;-77
2023/07/01 18:19:32;;;;;;;30.88;16.67;;;23.00;57.80;;;;;;4901289;29;20075;-79
2023/07/01 18:21:58;;;;;;;36.33;17.10;;;23.00;57.20;;;;;;4899881;29;20029;-83
2023/07/01 18:24:23;;;;;;;29.25;15.45;;;23.00;57.00;;;;;;4885010;29;20462;-79
2023/07/01 18:26:50;;;;;;;32.72;16.05;;;22.90;57.70;;;;;;4902911;29;20037;-79
2023/07/01 18:29:16;;;;;;;35.47;17.63;;;22.90;58.00;;;;;;4905504;29;20024;-79
2023/07/01 18:31:42;;;;;;;34.50;16.73;;;22.80;58.40;;;;;;4887515;29;20042;-82
2023/07/01 18:34:11;;;;;;;33.53;16.60;;;22.80;58.20;;;;;;4901933;29;20027;-79
2023/07/01 18:36:37;;;;;;;35.03;16.95;;;22.80;57.90;;;;;;4885393;29;20037;-81
2023/07/01 18:39:03;;;;;;;36.72;16.15;;;22.80;58.20;;;;;;4903015;29;20036;-79
2023/07/01 18:41:38;;;;;;;33.75;17.38;;;22.70;58.50;;;;;;4898649;29;20399;-82
2023/07/01 18:44:06;;;;;;;34.22;16.33;;;22.70;57.80;;;;;;4888532;29;20089;-81
2023/07/01 18:46:32;;;;;;;35.05;17.63;;;22.70;57.60;;;;;;4896360;29;20033;-78
2023/07/01 18:48:59;;;;;;;34.80;15.88;;;22.70;58.00;;;;;;4887032;29;20060;-78
2023/07/01 18:51:28;;;;;;;37.03;16.45;;;22.60;57.20;;;;;;4887248;29;20025;-78
2023/07/01 18:53:54;;;;;;;32.97;16.65;;;22.60;58.20;;;;;;4888601;29;20047;-77
2023/07/01 18:56:19;;;;;;;29.60;15.00;;;22.50;58.00;;;;;;4893467;29;20028;-81
2023/07/01 18:58:45;;;;;;;31.60;15.95;;;22.40;58.00;;;;;;4885649;29;20093;-77
2023/07/01 19:01:11;;;;;;;31.60;15.45;;;22.30;58.40;;;;;;4876807;29;20033;-76
2023/07/01 19:03:37;;;;;;;32.00;15.27;;;22.30;57.90;;;;;;4893899;29;20043;-78
2023/07/01 19:06:03;;;;;;;31.02;15.50;;;22.30;57.60;;;;;;4902890;29;20037;-80
2023/07/01 19:08:28;;;;;;;30.15;15.40;;;22.30;58.00;;;;;;4902026;29;20066;-78
2023/07/01 19:10:54;;;;;;;32.60;15.25;;;22.20;58.90;;;;;;4894362;29;20033;-76
2023/07/01 19:13:19;;;;;;;30.20;14.13;;;22.10;57.90;;;;;;4883901;29;20080;-78
2023/07/01 19:15:45;;;;;;;30.88;14.65;;;22.10;57.90;;;;;;4884016;29;20618;-79
2023/07/01 19:18:11;;;;;;;31.88;14.60;;;22.00;58.00;;;;;;4882955;29;20487;-79
2023/07/01 19:20:46;;;;;;;30.63;14.98;;;22.00;58.10;;;;;;4880584;29;20029;-79
2023/07/01 19:23:12;;;;;;;36.05;15.25;;;21.80;59.30;;;;;;4888875;29;20052;-79
2023/07/01 19:25:39;;;;;;;28.90;13.88;;;21.80;59.30;;;;;;4899548;29;20120;-77
2023/07/01 19:28:06;;;;;;;28.77;14.75;;;21.80;59.70;;;;;;4897758;29;20027;-77
2023/07/01 19:30:33;;;;;;;32.55;14.55;;;21.70;59.80;;;;;;4894898;29;20084;-77
2023/07/01 19:32:58;;;;;;;28.88;14.23;;;21.60;59.90;;;;;;4896812;29;20024;-77
2023/07/01 19:35:24;;;;;;;32.25;14.80;;;21.60;60.30;;;;;;4897074;29;20650;-77
2023/07/01 19:37:50;;;;;;;31.52;13.55;;;21.50;60.80;;;;;;4899762;29;20119;-77
2023/07/01 19:40:16;;;;;;;34.72;14.45;;;21.40;60.70;;;;;;4895438;29;20031;-78
2023/07/01 19:42:41;;;;;;;32.78;14.05;;;21.30;61.70;;;;;;4876729;29;20756;-78
2023/07/01 19:45:08;;;;;;;35.35;13.93;;;21.30;61.80;;;;;;4898573;29;20064;-78
2023/07/01 19:47:37;;;;;;;28.05;14.38;;;21.30;62.00;;;;;;4879938;29;20032;-77
2023/07/01 19:50:06;;;;;;;30.67;14.02;;;21.20;61.90;;;;;;4883332;29;20479;-78
2023/07/01 19:52:34;;;;;;;30.50;13.43;;;21.20;62.60;;;;;;4893793;29;20044;-78
2023/07/01 19:55:01;;;;;;;29.15;13.50;;;21.00;62.70;;;;;;4898437;29;20348;-78
2023/07/01 19:57:26;;;;;;;28.70;12.80;;;21.00;63.60;;;;;;4894157;29;20029;-78
2023/07/01 19:59:52;;;;;;;30.30;14.00;;;20.80;63.70;;;;;;4893723;29;20108;-78
2023/07/01 20:02:17;;;;;;;25.98;13.60;;;20.80;63.50;;;;;;4875923;29;20057;-78
2023/07/01 20:04:43;;;;;;;26.08;13.18;;;20.80;64.60;;;;;;4877273;29;20062;-78
2023/07/01 20:07:09;;;;;;;29.45;13.45;;;20.60;64.70;;;;;;4895940;29;20033;-78
2023/07/01 20:09:37;;;;;;;32.25;14.00;;;20.50;64.60;;;;;;4897914;29;20044;-78
2023/07/01 20:12:03;;;;;;;31.50;13.88;;;20.50;64.40;;;;;;4893212;29;20029;-78
2023/07/01 20:14:29;;;;;;;35.25;13.93;;;20.40;64.80;;;;;;4894073;29;20075;-78
2023/07/01 20:16:55;;;;;;;29.88;12.70;;;20.40;64.20;;;;;;4895067;29;20119;-80
2023/07/01 20:19:20;;;;;;;25.55;11.93;;;20.40;63.80;;;;;;4887211;29;20029;-80
2023/07/01 20:21:46;;;;;;;24.80;10.45;;;20.30;62.60;;;;;;4879229;29;20039;-80
2023/07/01 20:24:12;;;;;;;23.92;10.75;;;20.30;61.50;;;;;;4898518;29;20507;-80
2023/07/01 20:26:37;;;;;;;26.13;11.25;;;20.20;61.60;;;;;;4898778;29;20427;-80
2023/07/01 20:29:03;;;;;;;23.30;10.38;;;20.20;61.60;;;;;;4897909;29;20510;-81
2023/07/01 20:31:29;;;;;;;21.80;10.60;;;20.20;61.20;;;;;;4898201;29;20039;-80
2023/07/01 20:33:54;;;;;;;20.55;9.55;;;20.10;60.70;;;;;;4882008;29;20561;-81
2023/07/01 20:36:20;;;;;;;22.52;10.02;;;20.10;60.30;;;;;;4898330;29;20035;-81
2023/07/01 20:38:45;;;;;;;27.60;9.38;;;20.00;60.10;;;;;;4892312;29;20052;-81
2023/07/01 20:41:11;;;;;;;19.80;9.18;;;20.00;60.30;;;;;;4875551;29;20033;-81
2023/07/01 20:43:37;;;;;;;21.95;8.95;;;19.90;58.20;;;;;;4889509;29;20063;-81
2023/07/01 20:46:02;;;;;;;22.15;8.48;;;19.90;60.20;;;;;;4872457;29;20060;-80
2023/07/01 20:48:28;;;;;;;21.88;8.93;;;19.80;60.10;;;;;;4868802;29;20029;-81
2023/07/01 20:50:54;;;;;;;18.98;7.45;;;19.80;59.90;;;;;;4887145;29;20033;-81
2023/07/01 20:53:19;;;;;;;20.75;8.20;;;19.80;60.00;;;;;;4893900;29;20039;-81
2023/07/01 20:55:50;;;;;;;20.33;8.65;;;19.70;58.10;;;;;;4890376;29;20032;-81
2023/07/01 20:58:16;;;;;;;19.58;8.30;;;19.70;59.80;;;;;;4885921;29;20031;-81
2023/07/01 21:00:41;;;;;;;22.92;9.70;;;19.60;59.60;;;;;;4890142;29;20041;-81
2023/07/01 21:03:07;;;;;;;18.80;9.00;;;19.50;59.90;;;;;;4883416;29;20047;-81
2023/07/01 21:05:32;;;;;;;20.50;8.25;;;19.40;60.10;;;;;;4868454;29;20059;-80
2023/07/01 21:07:59;;;;;;;19.65;8.32;;;19.40;60.70;;;;;;4887523;29;20033;-81
2023/07/01 21:10:25;;;;;;;21.50;8.10;;;19.30;60.70;;;;;;4871167;29;20028;-81
2023/07/01 21:12:51;;;;;;;18.40;8.88;;;19.30;61.70;;;;;;4889362;29;20558;-81
2023/07/01 21:15:17;;;;;;;22.45;8.27;;;19.20;61.30;;;;;;4883847;29;20144;-80
2023/07/01 21:17:45;;;;;;;17.80;7.95;;;19.20;61.50;;;;;;4880726;29;20112;-82
2023/07/01 21:20:10;;;;;;;18.80;8.25;;;19.10;62.20;;;;;;4879831;29;20585;-81
2023/07/01 21:22:36;;;;;;;20.55;8.63;;;19.00;62.60;;;;;;4881948;29;20036;-80
2023/07/01 21:25:04;;;;;;;22.95;8.45;;;19.00;62.50;;;;;;4881748;29;20059;-80
2023/07/01 21:27:38;;;;;;;19.02;8.07;;;19.00;62.50;;;;;;4897615;29;20037;-80
